createdAt,value
2022-09-12T00:00:01.549Z,100
2022-09-12T00:01:04.417Z,100
2022-09-12T00:02:05.105Z,100
2022-09-12T00:03:06.728Z,100
2022-09-12T00:04:08.480Z,100
2022-09-12T00:05:10.220Z,100
2022-09-12T00:06:11.914Z,100
2022-09-12T00:07:13.634Z,100
2022-09-12T00:08:15.388Z,100
2022-09-12T00:09:17.101Z,100
2022-09-12T00:10:18.831Z,100
2022-09-12T00:11:20.570Z,100
2022-09-12T00:12:22.301Z,100
2022-09-12T00:13:24.003Z,100
2022-09-12T00:14:25.709Z,100
2022-09-12T00:15:27.461Z,100
2022-09-12T00:16:29.229Z,100
2022-09-12T00:17:30.910Z,100
2022-09-12T00:18:32.614Z,100
2022-09-12T00:19:34.349Z,100
2022-09-12T00:20:36.087Z,100
2022-09-12T00:21:37.804Z,100
2022-09-12T00:22:39.552Z,100
2022-09-12T00:23:41.243Z,100
2022-09-12T00:24:42.995Z,100
2022-09-12T00:25:44.705Z,100
2022-09-12T00:26:46.431Z,100
2022-09-12T00:27:48.162Z,100
2022-09-12T00:28:49.897Z,100
2022-09-12T00:29:51.608Z,100
2022-09-12T00:30:53.338Z,100
2022-09-12T00:31:55.099Z,100
2022-09-12T00:32:56.808Z,100
2022-09-12T00:33:58.501Z,100
2022-09-12T00:35:00.267Z,100
2022-09-12T00:36:05.021Z,100
2022-09-12T00:37:03.695Z,100
2022-09-12T00:38:05.421Z,100
2022-09-12T00:39:07.141Z,100
2022-09-12T00:40:08.915Z,100
2022-09-12T00:41:10.603Z,100
2022-09-12T00:42:12.331Z,100
2022-09-12T00:43:14.039Z,100
2022-09-12T00:44:15.789Z,100
2022-09-12T00:45:17.490Z,100
2022-09-12T00:46:19.215Z,100
2022-09-12T00:47:20.950Z,100
2022-09-12T00:48:22.673Z,100
2022-09-12T00:49:24.410Z,100
2022-09-12T00:50:26.123Z,100
2022-09-12T00:51:27.833Z,100
2022-09-12T00:52:29.571Z,100
2022-09-12T00:53:31.310Z,100
2022-09-12T00:54:33.029Z,100
2022-09-12T00:55:34.751Z,100
2022-09-12T00:56:36.461Z,100
2022-09-12T00:57:38.210Z,100
2022-09-12T00:58:39.933Z,100
2022-09-12T00:59:41.657Z,100
2022-09-12T01:00:43.472Z,100
2022-09-12T01:01:45.212Z,100
2022-09-12T01:02:46.831Z,100
2022-09-12T01:03:48.548Z,100
2022-09-12T01:04:50.274Z,100
2022-09-12T01:05:52.031Z,100
2022-09-12T01:06:53.719Z,100
2022-09-12T01:07:55.447Z,100
2022-09-12T01:08:57.186Z,100
2022-09-12T01:09:58.907Z,100
2022-09-12T01:11:00.649Z,100
2022-09-12T01:12:02.383Z,100
2022-09-12T01:13:04.107Z,100
2022-09-12T01:14:05.845Z,100
2022-09-12T01:15:07.567Z,100
2022-09-12T01:16:09.367Z,100
2022-09-12T01:17:11.107Z,100
2022-09-12T01:18:12.782Z,100
2022-09-12T01:19:14.521Z,100
2022-09-12T01:20:16.251Z,100
2022-09-12T01:21:17.998Z,100
2022-09-12T01:22:19.715Z,100
2022-09-12T01:23:21.444Z,100
2022-09-12T01:24:23.190Z,100
2022-09-12T01:25:24.941Z,100
2022-09-12T01:26:26.670Z,100
2022-09-12T01:27:28.377Z,100
2022-09-12T01:28:30.159Z,100
2022-09-12T01:29:31.877Z,100
2022-09-12T01:30:33.605Z,100
2022-09-12T01:31:35.345Z,100
2022-09-12T01:32:37.074Z,100
2022-09-12T01:33:38.833Z,100
2022-09-12T01:34:40.527Z,100
2022-09-12T01:35:42.281Z,100
2022-09-12T01:36:44.026Z,100
2022-09-12T01:37:45.743Z,100
2022-09-12T01:38:47.503Z,100
2022-09-12T01:39:49.221Z,100
2022-09-12T01:40:50.935Z,100
2022-09-12T01:41:52.688Z,100
2022-09-12T01:42:54.475Z,100
2022-09-12T01:43:56.139Z,100
2022-09-12T01:44:57.894Z,100
2022-09-12T01:45:59.668Z,100
2022-09-12T01:47:01.366Z,100
2022-09-12T01:48:03.107Z,100
2022-09-12T01:49:04.818Z,100
2022-09-12T01:50:06.549Z,100
2022-09-12T01:51:08.300Z,100
2022-09-12T01:52:10.037Z,100
2022-09-12T01:53:11.774Z,100
2022-09-12T01:54:13.498Z,100
2022-09-12T01:55:15.287Z,100
2022-09-12T01:56:16.956Z,100
2022-09-12T01:57:18.704Z,100
2022-09-12T01:58:20.472Z,100
2022-09-12T01:59:22.171Z,100
2022-09-12T02:00:23.939Z,100
2022-09-12T02:01:25.712Z,100
2022-09-12T02:02:27.427Z,100
2022-09-12T02:03:29.125Z,100
2022-09-12T02:04:34.088Z,100
2022-09-12T02:05:32.615Z,100
2022-09-12T02:06:34.306Z,100
2022-09-12T02:07:36.054Z,100
2022-09-12T02:08:38.021Z,100
2022-09-12T02:09:39.495Z,100
2022-09-12T02:10:41.233Z,100
2022-09-12T02:11:42.988Z,100
2022-09-12T02:12:44.729Z,100
2022-09-12T02:13:46.432Z,100
2022-09-12T02:14:48.190Z,100
2022-09-12T02:15:49.925Z,100
2022-09-12T02:16:51.652Z,100
2022-09-12T02:17:53.383Z,100
2022-09-12T02:18:55.106Z,100
2022-09-12T02:19:56.866Z,100
2022-09-12T02:20:58.586Z,100
2022-09-12T02:22:00.311Z,100
2022-09-12T02:23:02.087Z,100
2022-09-12T02:24:03.790Z,100
2022-09-12T02:25:05.522Z,100
2022-09-12T02:26:07.247Z,100
2022-09-12T02:27:09.017Z,100
2022-09-12T02:28:10.741Z,100
2022-09-12T02:29:12.456Z,100
2022-09-12T02:30:14.215Z,100
2022-09-12T02:31:15.958Z,100
2022-09-12T02:32:17.705Z,100
2022-09-12T02:33:19.441Z,100
2022-09-12T02:34:21.146Z,100
2022-09-12T02:35:22.902Z,100
2022-09-12T02:36:24.618Z,100
2022-09-12T02:37:26.395Z,100
2022-09-12T02:38:28.091Z,100
2022-09-12T02:39:29.844Z,100
2022-09-12T02:40:31.610Z,100
2022-09-12T02:41:33.308Z,100
2022-09-12T02:42:35.049Z,100
2022-09-12T02:43:36.789Z,100
2022-09-12T02:44:38.533Z,100
2022-09-12T02:45:40.289Z,100
2022-09-12T02:46:41.955Z,100
2022-09-12T02:47:43.705Z,100
2022-09-12T02:48:45.535Z,100
2022-09-12T02:49:47.179Z,100
2022-09-12T02:50:48.890Z,100
2022-09-12T02:51:50.676Z,100
2022-09-12T02:52:52.380Z,100
2022-09-12T02:53:54.128Z,100
2022-09-12T02:54:55.880Z,100
2022-09-12T02:55:57.585Z,100
2022-09-12T02:56:59.299Z,100
2022-09-12T02:58:01.047Z,100
2022-09-12T02:59:02.822Z,100
2022-09-12T03:00:04.533Z,100
2022-09-12T03:01:06.309Z,100
2022-09-12T03:02:08.096Z,100
2022-09-12T03:03:09.724Z,100
2022-09-12T03:04:11.478Z,100
2022-09-12T03:05:13.185Z,100
2022-09-12T03:06:14.926Z,100
2022-09-12T03:07:16.660Z,100
2022-09-12T03:08:18.391Z,100
2022-09-12T03:09:20.134Z,100
2022-09-12T03:10:21.863Z,100
2022-09-12T03:11:23.596Z,100
2022-09-12T03:12:25.338Z,100
2022-09-12T03:13:27.042Z,100
2022-09-12T03:14:28.793Z,100
2022-09-12T03:15:30.515Z,100
2022-09-12T03:16:32.305Z,100
2022-09-12T03:17:34.009Z,100
2022-09-12T03:18:35.761Z,100
2022-09-12T03:19:37.455Z,100
2022-09-12T03:20:39.201Z,100
2022-09-12T03:21:40.952Z,100
2022-09-12T03:22:42.673Z,100
2022-09-12T03:23:44.404Z,100
2022-09-12T03:24:46.141Z,100
2022-09-12T03:25:47.906Z,100
2022-09-12T03:26:49.589Z,100
2022-09-12T03:27:51.339Z,100
2022-09-12T03:28:53.069Z,100
2022-09-12T03:29:54.805Z,100
2022-09-12T03:30:56.775Z,100
2022-09-12T03:31:58.285Z,100
2022-09-12T03:33:00.085Z,100
2022-09-12T03:34:01.759Z,100
2022-09-12T03:35:03.492Z,100
2022-09-12T03:36:05.231Z,100
2022-09-12T03:37:06.944Z,100
2022-09-12T03:38:08.693Z,100
2022-09-12T03:39:10.444Z,100
2022-09-12T03:40:12.188Z,100
2022-09-12T03:41:13.880Z,100
2022-09-12T03:42:15.637Z,100
2022-09-12T03:43:17.368Z,100
2022-09-12T03:44:19.092Z,100
2022-09-12T03:45:20.861Z,100
2022-09-12T03:46:22.558Z,100
2022-09-12T03:47:24.313Z,100
2022-09-12T03:48:26.041Z,100
2022-09-12T03:49:27.776Z,100
2022-09-12T03:50:29.523Z,100
2022-09-12T03:51:31.256Z,100
2022-09-12T03:52:32.991Z,100
2022-09-12T03:53:34.722Z,100
2022-09-12T03:54:36.462Z,100
2022-09-12T03:55:38.169Z,100
2022-09-12T03:56:39.901Z,100
2022-09-12T03:57:41.656Z,100
2022-09-12T03:58:43.422Z,100
2022-09-12T03:59:45.120Z,100
2022-09-12T04:00:46.898Z,100
2022-09-12T04:01:48.577Z,100
2022-09-12T04:02:50.339Z,100
2022-09-12T04:03:52.064Z,100
2022-09-12T04:04:53.785Z,100
2022-09-12T04:05:55.538Z,100
2022-09-12T04:06:57.256Z,100
2022-09-12T04:07:59.008Z,100
2022-09-12T04:09:00.721Z,100
2022-09-12T04:10:02.480Z,100
2022-09-12T04:11:04.205Z,100
2022-09-12T04:12:05.942Z,100
2022-09-12T04:13:07.682Z,100
2022-09-12T04:14:09.393Z,100
2022-09-12T04:15:11.173Z,100
2022-09-12T04:16:12.974Z,100
2022-09-12T04:17:14.592Z,100
2022-09-12T04:18:16.350Z,100
2022-09-12T04:19:18.099Z,100
2022-09-12T04:20:19.830Z,100
2022-09-12T04:21:21.540Z,100
2022-09-12T04:22:23.295Z,100
2022-09-12T04:23:25.033Z,100
2022-09-12T04:24:26.761Z,100
2022-09-12T04:25:28.481Z,100
2022-09-12T04:26:30.227Z,100
2022-09-12T04:27:31.954Z,100
2022-09-12T04:28:33.683Z,100
2022-09-12T04:29:35.426Z,100
2022-09-12T04:30:37.184Z,100
2022-09-12T04:31:38.900Z,100
2022-09-12T04:32:40.627Z,100
2022-09-12T04:33:42.379Z,100
2022-09-12T04:34:44.079Z,100
2022-09-12T04:35:45.868Z,100
2022-09-12T04:36:47.561Z,100
2022-09-12T04:37:49.648Z,100
2022-09-12T04:38:51.706Z,100
2022-09-12T04:39:52.807Z,100
2022-09-12T04:40:54.502Z,100
2022-09-12T04:41:56.231Z,100
2022-09-12T04:42:57.971Z,100
2022-09-12T04:43:59.717Z,100
2022-09-12T04:45:01.437Z,100
2022-09-12T04:46:04.260Z,100
2022-09-12T04:47:04.921Z,100
2022-09-12T04:48:06.642Z,100
2022-09-12T04:49:08.372Z,100
2022-09-12T04:50:10.129Z,100
2022-09-12T04:51:11.854Z,100
2022-09-12T04:52:13.600Z,100
2022-09-12T04:53:15.322Z,100
2022-09-12T04:54:17.125Z,100
2022-09-12T04:55:18.795Z,100
2022-09-12T04:56:20.516Z,100
2022-09-12T04:57:22.270Z,100
2022-09-12T04:58:23.993Z,100
2022-09-12T04:59:25.741Z,100
2022-09-12T05:00:27.475Z,100
2022-09-12T05:01:29.209Z,100
2022-09-12T05:02:30.992Z,100
2022-09-12T05:03:32.646Z,100
2022-09-12T05:04:34.399Z,100
2022-09-12T05:05:36.131Z,100
2022-09-12T05:06:37.861Z,100
2022-09-12T05:07:39.594Z,100
2022-09-12T05:08:41.358Z,100
2022-09-12T05:09:43.076Z,100
2022-09-12T05:10:44.644Z,100
2022-09-12T05:12:03.663Z,100
2022-09-12T05:12:48.114Z,100
2022-09-12T05:13:49.874Z,100
2022-09-12T05:14:51.572Z,100
2022-09-12T05:15:53.320Z,100
2022-09-12T05:16:55.123Z,100
2022-09-12T05:17:56.787Z,100
2022-09-12T05:18:58.518Z,100
2022-09-12T05:20:00.244Z,100
2022-09-12T05:21:05.017Z,100
2022-09-12T05:22:03.734Z,100
2022-09-12T05:23:05.446Z,100
2022-09-12T05:24:07.186Z,100
2022-09-12T05:25:08.914Z,100
2022-09-12T05:26:10.658Z,100
2022-09-12T05:27:12.392Z,100
2022-09-12T05:28:14.139Z,100
2022-09-12T05:29:15.857Z,100
2022-09-12T05:30:17.601Z,100
2022-09-12T05:31:19.334Z,100
2022-09-12T05:32:21.185Z,100
2022-09-12T05:33:25.091Z,100
2022-09-12T05:34:24.552Z,100
2022-09-12T05:35:26.266Z,100
2022-09-12T05:36:27.999Z,100
2022-09-12T05:37:29.732Z,100
2022-09-12T05:38:31.620Z,100
2022-09-12T05:39:33.225Z,100
2022-09-12T05:40:34.960Z,100
2022-09-12T05:41:36.682Z,100
2022-09-12T05:42:38.426Z,100
2022-09-12T05:43:40.161Z,100
2022-09-12T05:44:41.896Z,100
2022-09-12T05:45:44.315Z,100
2022-09-12T05:46:45.959Z,100
2022-09-12T05:47:47.403Z,100
2022-09-12T05:48:52.513Z,100
2022-09-12T05:49:50.554Z,100
2022-09-12T05:50:52.298Z,100
2022-09-12T05:51:54.017Z,100
2022-09-12T05:52:55.744Z,100
2022-09-12T05:53:57.502Z,100
2022-09-12T05:54:59.237Z,100
2022-09-12T05:56:00.973Z,100
2022-09-12T05:57:02.697Z,100
2022-09-12T05:58:04.435Z,100
2022-09-12T05:59:06.196Z,100
2022-09-12T06:00:07.896Z,100
2022-09-12T06:01:09.706Z,100
2022-09-12T06:02:11.416Z,100
2022-09-12T06:03:13.116Z,100
2022-09-12T06:04:14.838Z,100
2022-09-12T06:05:16.594Z,100
2022-09-12T06:06:18.326Z,100
2022-09-12T06:07:20.052Z,100
2022-09-12T06:08:21.779Z,100
2022-09-12T06:09:23.704Z,100
2022-09-12T06:10:25.250Z,100
2022-09-12T06:11:26.994Z,100
2022-09-12T06:12:28.726Z,100
2022-09-12T06:13:30.450Z,100
2022-09-12T06:14:32.201Z,100
2022-09-12T06:15:34.111Z,100
2022-09-12T06:16:35.688Z,100
2022-09-12T06:17:37.391Z,100
2022-09-12T06:18:39.130Z,100
2022-09-12T06:19:40.866Z,100
2022-09-12T06:20:42.613Z,100
2022-09-12T06:21:44.340Z,100
2022-09-12T06:22:46.067Z,100
2022-09-12T06:23:47.831Z,100
2022-09-12T06:24:49.554Z,100
2022-09-12T06:25:51.285Z,100
2022-09-12T06:26:53.014Z,100
2022-09-12T06:27:54.761Z,100
2022-09-12T06:28:56.482Z,100
2022-09-12T06:29:58.209Z,100
2022-09-12T06:30:59.955Z,100
2022-09-12T06:32:01.686Z,100
2022-09-12T06:33:03.418Z,100
2022-09-12T06:34:05.151Z,100
2022-09-12T06:35:06.865Z,100
2022-09-12T06:36:12.186Z,100
2022-09-12T06:37:10.349Z,100
2022-09-12T06:38:12.108Z,100
2022-09-12T06:39:13.810Z,100
2022-09-12T06:40:15.617Z,100
2022-09-12T06:41:17.288Z,100
2022-09-12T06:42:19.421Z,100
2022-09-12T06:43:20.751Z,100
2022-09-12T06:44:22.515Z,100
2022-09-12T06:45:24.202Z,100
2022-09-12T06:46:25.955Z,100
2022-09-12T06:47:27.699Z,100
2022-09-12T06:48:29.448Z,100
2022-09-12T06:49:31.151Z,100
2022-09-12T06:50:32.919Z,100
2022-09-12T06:51:34.657Z,100
2022-09-12T06:52:36.378Z,100
2022-09-12T06:53:38.108Z,100
2022-09-12T06:54:39.845Z,100
2022-09-12T06:55:41.596Z,100
2022-09-12T06:56:43.298Z,100
2022-09-12T06:57:45.044Z,100
2022-09-12T06:58:46.908Z,100
2022-09-12T06:59:48.523Z,100
2022-09-12T07:00:50.282Z,100
2022-09-12T07:01:52.072Z,100
2022-09-12T07:02:53.735Z,100
2022-09-12T07:03:55.464Z,100
2022-09-12T07:04:57.197Z,100
2022-09-12T07:05:58.940Z,100
2022-09-12T07:07:00.661Z,100
2022-09-12T07:08:02.394Z,100
2022-09-12T07:09:04.105Z,100
2022-09-12T07:10:05.840Z,100
2022-09-12T07:11:07.579Z,100
2022-09-12T07:12:09.311Z,100
2022-09-12T07:13:11.053Z,100
2022-09-12T07:14:12.820Z,100
2022-09-12T07:15:14.540Z,100
2022-09-12T07:16:19.659Z,100
2022-09-12T07:17:17.975Z,100
2022-09-12T07:18:19.725Z,100
2022-09-12T07:19:21.476Z,100
2022-09-12T07:20:23.248Z,100
2022-09-12T07:21:24.935Z,100
2022-09-12T07:22:26.665Z,100
2022-09-12T07:23:28.399Z,100
2022-09-12T07:24:30.183Z,100
2022-09-12T07:25:31.879Z,100
2022-09-12T07:26:33.589Z,100
2022-09-12T07:27:35.343Z,100
2022-09-12T07:28:37.077Z,100
2022-09-12T07:29:38.815Z,100
2022-09-12T07:30:40.648Z,100
2022-09-12T07:31:42.383Z,100
2022-09-12T07:32:44.009Z,100
2022-09-12T07:33:45.993Z,100
2022-09-12T07:34:47.480Z,100
2022-09-12T07:35:49.223Z,100
2022-09-12T07:36:50.939Z,100
2022-09-12T07:37:52.695Z,100
2022-09-12T07:38:57.211Z,100
2022-09-12T07:39:56.190Z,100
2022-09-12T07:40:57.899Z,100
2022-09-12T07:41:59.609Z,100
2022-09-12T07:43:01.343Z,100
2022-09-12T07:44:03.085Z,100
2022-09-12T07:45:04.814Z,100
2022-09-12T07:46:06.643Z,100
2022-09-12T07:47:08.284Z,100
2022-09-12T07:48:10.065Z,100
2022-09-12T07:49:11.770Z,100
2022-09-12T07:50:13.507Z,100
2022-09-12T07:51:15.246Z,100
2022-09-12T07:52:16.962Z,100
2022-09-12T07:53:18.708Z,100
2022-09-12T07:54:20.434Z,100
2022-09-12T07:55:22.194Z,100
2022-09-12T07:56:28.768Z,100
2022-09-12T07:57:25.652Z,100
2022-09-12T07:58:27.379Z,100
2022-09-12T07:59:41.826Z,100
2022-09-12T08:00:30.864Z,100
2022-09-12T08:01:32.686Z,100
2022-09-12T08:02:34.376Z,100
2022-09-12T08:03:36.126Z,100
2022-09-12T08:04:37.806Z,100
2022-09-12T08:05:39.571Z,100
2022-09-12T08:06:41.296Z,100
2022-09-12T08:07:43.013Z,100
2022-09-12T08:08:44.713Z,100
2022-09-12T08:09:46.447Z,100
2022-09-12T08:10:48.230Z,100
2022-09-12T08:11:49.921Z,100
2022-09-12T08:12:51.674Z,100
2022-09-12T08:13:55.746Z,100
2022-09-12T08:14:55.128Z,100
2022-09-12T08:15:56.895Z,100
2022-09-12T08:16:58.627Z,100
2022-09-12T08:18:00.373Z,100
2022-09-12T08:19:02.136Z,100
2022-09-12T08:20:03.808Z,100
2022-09-12T08:21:05.538Z,100
2022-09-12T08:22:07.273Z,100
2022-09-12T08:23:09.034Z,100
2022-09-12T08:24:10.763Z,100
2022-09-12T08:25:12.519Z,100
2022-09-12T08:26:14.222Z,100
2022-09-12T08:27:15.974Z,100
2022-09-12T08:28:17.707Z,100
2022-09-12T08:29:19.428Z,100
2022-09-12T08:30:21.252Z,100
2022-09-12T08:31:22.934Z,100
2022-09-12T08:32:24.683Z,100
2022-09-12T08:33:26.388Z,100
2022-09-12T08:34:28.110Z,100
2022-09-12T08:35:29.819Z,100
2022-09-12T08:36:31.562Z,100
2022-09-12T08:37:33.328Z,100
2022-09-12T08:38:35.028Z,100
2022-09-12T08:39:36.753Z,100
2022-09-12T08:40:38.496Z,100
2022-09-12T08:41:40.275Z,100
2022-09-12T08:42:43.010Z,100
2022-09-12T08:43:43.713Z,100
2022-09-12T08:44:45.445Z,100
2022-09-12T08:45:47.247Z,100
2022-09-12T08:46:48.901Z,100
2022-09-12T08:47:50.675Z,100
2022-09-12T08:48:52.422Z,100
2022-09-12T08:49:54.155Z,100
2022-09-12T08:50:55.866Z,100
2022-09-12T08:51:57.612Z,100
2022-09-12T08:52:59.332Z,100
2022-09-12T08:54:01.054Z,100
2022-09-12T08:55:02.833Z,100
2022-09-12T08:56:04.544Z,100
2022-09-12T08:57:06.271Z,100
2022-09-12T08:58:08.019Z,100
2022-09-12T08:59:09.735Z,100
2022-09-12T09:00:11.543Z,100
2022-09-12T09:01:13.345Z,100
2022-09-12T09:02:15.033Z,100
2022-09-12T09:03:16.697Z,100
2022-09-12T09:04:18.456Z,100
2022-09-12T09:05:20.189Z,100
2022-09-12T09:06:21.913Z,100
2022-09-12T09:07:23.653Z,100
2022-09-12T09:08:25.413Z,100
2022-09-12T09:09:28.127Z,100
2022-09-12T09:10:28.838Z,100
2022-09-12T09:11:30.590Z,100
2022-09-12T09:12:32.296Z,99.79
2022-09-12T09:13:34.017Z,100
2022-09-12T09:14:35.766Z,100
2022-09-12T09:15:37.588Z,100
2022-09-12T09:16:39.227Z,100
2022-09-12T09:17:40.996Z,100
2022-09-12T09:18:42.731Z,100
2022-09-12T09:19:48.807Z,100
2022-09-12T09:20:46.168Z,100
2022-09-12T09:21:47.928Z,100
2022-09-12T09:22:49.638Z,100
2022-09-12T09:23:51.385Z,100
2022-09-12T09:24:53.142Z,100
2022-09-12T09:25:54.853Z,100
2022-09-12T09:26:56.602Z,100
2022-09-12T09:27:58.320Z,100
2022-09-12T09:29:00.088Z,100
2022-09-12T09:30:01.821Z,100
2022-09-12T09:31:04.613Z,100
2022-09-12T09:32:05.271Z,100
2022-09-12T09:33:07.020Z,99.82
2022-09-12T09:34:08.729Z,97.95
2022-09-12T09:35:10.455Z,99.79
2022-09-12T09:36:12.186Z,97.73
2022-09-12T09:37:13.929Z,90.65
2022-09-12T09:38:15.647Z,92.79
2022-09-12T09:39:17.378Z,95.35
2022-09-12T09:40:19.234Z,96.92
2022-09-12T09:41:20.853Z,95.02
2022-09-12T09:42:22.582Z,95.79
2022-09-12T09:43:24.341Z,96.42
2022-09-12T09:44:26.079Z,93.62
2022-09-12T09:45:27.794Z,95.68
2022-09-12T09:46:29.589Z,93.29
2022-09-12T09:47:31.266Z,93.79
2022-09-12T09:48:32.984Z,95.05
2022-09-12T09:49:34.746Z,95.9
2022-09-12T09:50:36.474Z,94.28
2022-09-12T09:51:38.206Z,93.77
2022-09-12T09:52:39.947Z,95.68
2022-09-12T09:53:41.668Z,95.52
2022-09-12T09:54:43.416Z,96.22
2022-09-12T09:55:45.139Z,95.71
2022-09-12T09:56:46.865Z,96.59
2022-09-12T09:57:48.606Z,94.09
2022-09-12T09:58:50.332Z,95.96
2022-09-12T09:59:52.106Z,95.45
2022-09-12T10:00:56.741Z,97.38
2022-09-12T10:01:55.566Z,97.73
2022-09-12T10:02:57.360Z,96.29
2022-09-12T10:03:59.047Z,92.74
2022-09-12T10:05:00.775Z,95
2022-09-12T10:06:03.610Z,90.91
2022-09-12T10:07:04.245Z,86.8
2022-09-12T10:08:05.983Z,91.58
2022-09-12T10:09:07.817Z,90.24
2022-09-12T10:10:09.456Z,89.27
2022-09-12T10:11:11.205Z,88.57
2022-09-12T10:12:12.909Z,90.55
2022-09-12T10:13:14.632Z,90.36
2022-09-12T10:14:16.362Z,91.78
2022-09-12T10:15:18.086Z,92.94
2022-09-12T10:16:19.841Z,94.36
2022-09-12T10:17:21.574Z,90.42
2022-09-12T10:18:23.337Z,92.05
2022-09-12T10:19:25.008Z,93.59
2022-09-12T10:20:26.769Z,91.97
2022-09-12T10:21:28.513Z,92.62
2022-09-12T10:22:30.234Z,95.47
2022-09-12T10:23:31.956Z,89.73
2022-09-12T10:24:33.687Z,86.46
2022-09-12T10:25:35.428Z,88.52
2022-09-12T10:26:37.190Z,90.24
2022-09-12T10:27:38.898Z,90.48
2022-09-12T10:28:42.418Z,89.73
2022-09-12T10:29:42.390Z,90.41
2022-09-12T10:30:44.238Z,90.02
2022-09-12T10:31:45.871Z,89.75
2022-09-12T10:32:47.597Z,86.34
2022-09-12T10:33:49.345Z,83.74
2022-09-12T10:34:51.074Z,83.83
2022-09-12T10:35:52.795Z,83.31
2022-09-12T10:36:54.502Z,82.56
2022-09-12T10:37:56.256Z,85.41
2022-09-12T10:38:57.970Z,86.42
2022-09-12T10:39:59.732Z,84.41
2022-09-12T10:41:04.766Z,85.3
2022-09-12T10:42:03.175Z,86.34
2022-09-12T10:43:04.912Z,86.96
2022-09-12T10:44:06.676Z,84.9
2022-09-12T10:45:08.376Z,82.35
2022-09-12T10:46:10.183Z,81.75
2022-09-12T10:47:11.843Z,80.27
2022-09-12T10:48:13.595Z,76.15
2022-09-12T10:49:15.320Z,80.08
2022-09-12T10:50:22.552Z,79.16
2022-09-12T10:51:18.770Z,79.92
2022-09-12T10:52:20.541Z,80.85
2022-09-12T10:53:22.283Z,80.34
2022-09-12T10:54:23.988Z,82.38
2022-09-12T10:55:25.728Z,78.66
2022-09-12T10:56:27.465Z,79.72
2022-09-12T10:57:29.185Z,77.21
2022-09-12T10:58:30.931Z,78.15
2022-09-12T10:59:32.668Z,77.92
2022-09-12T11:00:34.490Z,78.56
2022-09-12T11:01:36.260Z,78.1
2022-09-12T11:02:37.948Z,76.77
2022-09-12T11:03:39.623Z,76.76
2022-09-12T11:04:41.345Z,77.91
2022-09-12T11:05:43.109Z,79.16
2022-09-12T11:06:44.824Z,79.4
2022-09-12T11:07:46.567Z,78.19
2022-09-12T11:08:48.306Z,75.24
2022-09-12T11:09:50.034Z,75.3
2022-09-12T11:10:51.771Z,75.13
2022-09-12T11:11:53.496Z,74.37
2022-09-12T11:12:55.227Z,75.36
2022-09-12T11:13:56.934Z,73.9
2022-09-12T11:14:58.687Z,73.11
2022-09-12T11:16:00.523Z,75.2
2022-09-12T11:17:02.142Z,77.26
2022-09-12T11:18:03.884Z,71.24
2022-09-12T11:19:05.624Z,70.73
2022-09-12T11:20:07.357Z,69.91
2022-09-12T11:21:09.075Z,70.95
2022-09-12T11:22:10.822Z,73.05
2022-09-12T11:23:12.562Z,76.03
2022-09-12T11:24:14.297Z,75.39
2022-09-12T11:25:16.028Z,75.37
2022-09-12T11:26:17.749Z,75.49
2022-09-12T11:27:19.487Z,73.05
2022-09-12T11:28:21.236Z,73.55
2022-09-12T11:29:22.983Z,70.58
2022-09-12T11:30:24.712Z,74.03
2022-09-12T11:31:26.466Z,74.61
2022-09-12T11:32:28.213Z,75.97
2022-09-12T11:33:29.947Z,75.32
2022-09-12T11:34:31.652Z,74.28
2022-09-12T11:35:33.407Z,74.6
2022-09-12T11:36:35.107Z,73.96
2022-09-12T11:37:36.836Z,70.97
2022-09-12T11:38:38.587Z,70.75
2022-09-12T11:39:40.431Z,69.88
2022-09-12T11:40:42.033Z,70.92
2022-09-12T11:41:43.764Z,74.28
2022-09-12T11:42:45.516Z,74.08
2022-09-12T11:43:47.546Z,71.98
2022-09-12T11:44:48.990Z,70.82
2022-09-12T11:45:50.777Z,73.35
2022-09-12T11:46:52.458Z,74.87
2022-09-12T11:47:54.192Z,75.44
2022-09-12T11:48:55.915Z,75.06
2022-09-12T11:49:57.641Z,71.59
2022-09-12T11:50:59.371Z,72.66
2022-09-12T11:52:01.120Z,66.16
2022-09-12T11:53:02.868Z,65.62
2022-09-12T11:54:04.582Z,65.38
2022-09-12T11:55:06.310Z,65.33
2022-09-12T11:56:08.057Z,66.06
2022-09-12T11:57:09.791Z,63.4
2022-09-12T11:58:11.532Z,65.2
2022-09-12T11:59:13.303Z,65.19
2022-09-12T12:00:15.027Z,65.32
2022-09-12T12:01:16.795Z,61.5
2022-09-12T12:02:18.553Z,64.23
2022-09-12T12:03:20.321Z,63.59
2022-09-12T12:04:21.961Z,65.29
2022-09-12T12:05:23.674Z,65.06
2022-09-12T12:06:25.431Z,67.46
2022-09-12T12:07:27.163Z,68.46
2022-09-12T12:08:28.894Z,68.76
2022-09-12T12:09:30.627Z,66.45
2022-09-12T12:10:32.364Z,67.69
2022-09-12T12:11:34.103Z,65.34
2022-09-12T12:12:35.869Z,65.79
2022-09-12T12:13:37.540Z,66.38
2022-09-12T12:14:39.290Z,65.12
2022-09-12T12:15:41.057Z,64.18
2022-09-12T12:16:42.742Z,62.97
2022-09-12T12:17:44.473Z,62.92
2022-09-12T12:18:46.366Z,62.98
2022-09-12T12:19:47.965Z,66.39
2022-09-12T12:20:49.692Z,65.51
2022-09-12T12:21:51.416Z,65.64
2022-09-12T12:22:53.167Z,66.47
2022-09-12T12:23:54.902Z,66.12
2022-09-12T12:24:56.627Z,65.05
2022-09-12T12:25:58.350Z,65.3
2022-09-12T12:27:00.162Z,64.11
2022-09-12T12:28:02.009Z,63.34
2022-09-12T12:29:03.567Z,64.34
2022-09-12T12:30:05.333Z,66.33
2022-09-12T12:31:07.146Z,69.25
2022-09-12T12:32:08.799Z,67.29
2022-09-12T12:33:10.537Z,67.02
2022-09-12T12:34:12.239Z,65.16
2022-09-12T12:35:13.984Z,64.5
2022-09-12T12:36:15.721Z,63.79
2022-09-12T12:37:17.436Z,64.17
2022-09-12T12:38:19.169Z,64.98
2022-09-12T12:39:20.909Z,64.45
2022-09-12T12:40:22.679Z,64.13
2022-09-12T12:41:24.371Z,65.66
2022-09-12T12:42:26.136Z,67.02
2022-09-12T12:43:27.839Z,67.91
2022-09-12T12:44:29.554Z,65.64
2022-09-12T12:45:31.285Z,64.6
2022-09-12T12:46:33.139Z,65.47
2022-09-12T12:47:34.759Z,62.48
2022-09-12T12:48:36.510Z,62.35
2022-09-12T12:49:38.245Z,60.69
2022-09-12T12:50:39.981Z,59.65
2022-09-12T12:51:41.713Z,61.38
2022-09-12T12:52:43.442Z,62.22
2022-09-12T12:53:45.240Z,61.98
2022-09-12T12:54:46.908Z,62.2
2022-09-12T12:55:48.643Z,63.02
2022-09-12T12:56:50.350Z,60.42
2022-09-12T12:57:52.094Z,61.89
2022-09-12T12:58:53.827Z,61.44
2022-09-12T12:59:55.567Z,60.06
2022-09-12T13:00:57.341Z,63.31
2022-09-12T13:01:59.182Z,62.81
2022-09-12T13:03:00.798Z,60.68
2022-09-12T13:04:02.522Z,62.22
2022-09-12T13:05:04.254Z,63.06
2022-09-12T13:06:06.048Z,62.21
2022-09-12T13:07:08.362Z,62.42
2022-09-12T13:08:09.455Z,62.95
2022-09-12T13:09:11.190Z,62.13
2022-09-12T13:10:12.946Z,62.56
2022-09-12T13:11:14.657Z,60.67
2022-09-12T13:12:16.410Z,60.44
2022-09-12T13:13:18.121Z,61.24
2022-09-12T13:14:19.865Z,59.04
2022-09-12T13:15:21.568Z,57.45
2022-09-12T13:16:23.345Z,57.78
2022-09-12T13:17:25.068Z,57.96
2022-09-12T13:18:26.799Z,58.97
2022-09-12T13:19:28.520Z,59.69
2022-09-12T13:20:30.572Z,62.15
2022-09-12T13:21:31.986Z,61.72
2022-09-12T13:22:33.707Z,63.05
2022-09-12T13:23:35.465Z,64.07
2022-09-12T13:24:37.186Z,66.39
2022-09-12T13:25:38.911Z,65.83
2022-09-12T13:26:40.659Z,63.53
2022-09-12T13:27:42.378Z,62.22
2022-09-12T13:28:44.149Z,62.65
2022-09-12T13:29:45.887Z,62.67
2022-09-12T13:30:47.685Z,63.45
2022-09-12T13:31:49.401Z,60.62
2022-09-12T13:32:51.070Z,60.75
2022-09-12T13:33:52.797Z,59.78
2022-09-12T13:34:54.543Z,57.57
2022-09-12T13:35:56.418Z,58.36
2022-09-12T13:36:57.976Z,61.22
2022-09-12T13:37:59.741Z,59.8
2022-09-12T13:39:01.446Z,58.17
2022-09-12T13:40:03.291Z,58.27
2022-09-12T13:41:04.942Z,59.31
2022-09-12T13:42:06.674Z,57.66
2022-09-12T13:43:08.403Z,56.92
2022-09-12T13:44:10.143Z,58.75
2022-09-12T13:45:11.874Z,59.73
2022-09-12T13:46:13.659Z,58.87
2022-09-12T13:47:15.351Z,58.68
2022-09-12T13:48:17.099Z,57.89
2022-09-12T13:49:18.807Z,57.48
2022-09-12T13:50:20.546Z,59.01
2022-09-12T13:51:22.281Z,58.8
2022-09-12T13:52:24.013Z,58.92